ZODIAC51 / G-FRAH 7700 Squawk Report (21st of February, 2019)

Time Lat Lon Altitude Heading Speed Vertical Rate
2019-02-21 10:47:23 GMT 50.784908 -1.813507 -125 256 129 -640
2019-02-21 10:47:17 GMT 50.785789 -1.807938 -75 255 127 -704
2019-02-21 10:47:00 GMT 50.788586 -1.792374 -25 265 118 -600
2019-02-21 10:46:54 GMT 50.789425 -1.787872 75 265 118 -600
2019-02-21 10:46:39 GMT 50.791702 -1.774368 200 265 118 -600
2019-02-21 10:46:34 GMT 50.792496 -1.769791 350 265 118 -600
2019-02-21 10:46:23 GMT 50.794498 -1.757812 450 265 118 -600
2019-02-21 10:45:18 GMT 50.803719 -1.706364 1,200 265 118 -600
2019-02-21 10:45:00 GMT 50.805744 -1.690370 1,450 261 121 -180
2019-02-21 10:44:41 GMT 50.807823 -1.672956 1,600 255 131 0
2019-02-21 10:44:26 GMT 50.810013 -1.659236 1,625 254 145 -60
2019-02-21 10:44:12 GMT 50.812332 -1.645693 1,600 249 191 -60
2019-02-21 10:44:00 GMT 50.816269 -1.634528 1,625 242 143 60
2019-02-21 10:43:46 GMT 50.822350 -1.623122 1,650 229 119 60
2019-02-21 10:43:35 GMT 50.827404 -1.615620 1,650 199 150 -60
2019-02-21 10:43:23 GMT 50.835403 -1.614995 1,625 167 149 0
2019-02-21 10:43:12 GMT 50.843388 -1.618522 1,650 167 125 60
2019-02-21 10:43:01 GMT 50.850964 -1.622171 1,650 162 167 -60
2019-02-21 10:42:51 GMT 50.857586 -1.625614 1,625 168 132 -134340
2019-02-21 10:42:41 GMT 50.871277 -1.631868 1,650 161 149 117000
2019-02-21 10:42:31 GMT 50.871277 -1.631868 1,650 161 164 117000
2019-02-21 10:42:21 GMT 50.878487 -1.635679 1,675 147 152 -780
2019-02-21 10:42:11 GMT 50.884472 -1.644016 1,800 118 175 -540
2019-02-21 10:42:01 GMT 50.887623 -1.655702 2,000 111 149 0
2019-02-21 10:41:51 GMT 50.891441 -1.668126 2,125 113 189 0
2019-02-21 10:41:39 GMT 50.895576 -1.682588 2,125 107 178 0
2019-02-21 10:41:28 GMT 50.898918 -1.696225 2,125 128 249 -180
2019-02-21 10:41:18 GMT 50.902611 -1.708339 2,125 113 197 -120
2019-02-21 10:40:55 GMT 50.911579 -1.738818 2,125 114 232 -840
2019-02-21 10:40:44 GMT 50.916443 -1.755909 2,100 121 268 -1080
2019-02-21 10:40:32 GMT 50.922005 -1.774289 2,150 117 252 -420
2019-02-21 10:40:16 GMT 50.935959 -1.816027 2,600 114 224 0
2019-02-21 10:40:05 GMT 50.935959 -1.816027 2,625 116 237 0
2019-02-21 10:39:37 GMT 50.949913 -1.859581 2,625 107 204 0
2019-02-21 10:39:27 GMT 50.955177 -1.876503 2,625 116 220 0
2019-02-21 10:39:16 GMT 50.960041 -1.892293 2,625 118 240 0
2019-02-21 10:38:54 GMT 50.971615 -1.926809 2,625 116 231 0
2019-02-21 10:38:39 GMT 50.978748 -1.949696 2,625 116 232 0
2019-02-21 10:38:28 GMT 50.984333 -1.966879 2,625 116 211 0
2019-02-21 10:38:15 GMT 50.990578 -1.986545 2,625 115 254 0
2019-02-21 10:38:02 GMT 50.996948 -2.006756 2,625 119 271 -60
2019-02-21 10:37:51 GMT 51.002270 -2.022811 2,625 117 267 -1140
2019-02-21 10:37:38 GMT 51.008930 -2.043578 2,675 117 222 -1200
2019-02-21 10:37:26 GMT 51.014912 -2.062733 2,900 117 250 -720
2019-02-21 10:37:09 GMT 51.023754 -2.089555 3,125 121 222 -960
2019-02-21 10:36:55 GMT 51.031090 -2.111533 3,300 122 250 -840
2019-02-21 10:36:43 GMT 51.038425 -2.128828 3,450 145 256 -1380
2019-02-21 10:36:29 GMT 51.053013 -2.141816 3,775 146 139 -1260
2019-02-21 10:36:19 GMT 51.063515 -2.149095 4,000 158 143 -2100
2019-02-21 10:36:09 GMT 51.074017 -2.156762 4,300 148 136 -1260
2019-02-21 10:35:59 GMT 51.083992 -2.163266 4,475 155 349 -1140
2019-02-21 10:35:49 GMT 51.095570 -2.171226 4,725 158 216 -1920
2019-02-21 10:35:36 GMT 51.109680 -2.180657 5,075 158 228 -2160
2019-02-21 10:35:26 GMT 51.119846 -2.187147 5,350 166 233 -1140
2019-02-21 10:35:14 GMT 51.132996 -2.196517 5,625 163 266 -1560
2019-02-21 10:35:03 GMT 51.145370 -2.205563 5,900 145 197 -1200
2019-02-21 10:34:52 GMT 51.155361 -2.217646 6,150 161 126 -1620
2019-02-21 10:34:42 GMT 51.175129 -2.250613 6,525 139 326 -1260
2019-02-21 10:34:29 GMT 51.185486 -2.267506 6,850 132 255 -1020
2019-02-21 10:34:16 GMT 51.185486 -2.267506 7,100 134 163 -960
2019-02-21 10:34:06 GMT 51.192532 -2.278961 7,275 140 251 -660
2019-02-21 10:33:56 GMT 51.200455 -2.291008 7,425 142 263 -840
2019-02-21 10:33:46 GMT 51.209469 -2.299952 7,600 150 254 -1380
2019-02-21 10:33:35 GMT 51.221272 -2.310284 7,800 148 260 -960
2019-02-21 10:33:24 GMT 51.231987 -2.319165 7,950 154 245 -1320
2019-02-21 10:33:14 GMT 51.241772 -2.326777 8,150 142 257 -900
2019-02-21 10:33:01 GMT 51.256695 -2.337778 8,325 154 253 -1020
2019-02-21 10:32:51 GMT 51.267323 -2.345758 8,525 157 253 -960
2019-02-21 10:32:41 GMT 51.278126 -2.353050 8,675 144 287 -120
2019-02-21 10:32:31 GMT 51.289608 -2.362783 8,875 156 281 -60
2019-02-21 10:32:20 GMT 51.302486 -2.371316 8,975 154 257 60
2019-02-21 10:32:09 GMT 51.314331 -2.380213 8,950 152 289 -120
2019-02-21 10:31:59 GMT 51.325485 -2.387844 8,975 153 252 120
2019-02-21 10:31:49 GMT 51.336189 -2.396087 8,975 151 275 0
2019-02-21 10:31:38 GMT 51.361252 -2.414599 8,950 156 239 -60
2019-02-21 10:31:27 GMT 51.361252 -2.414599 8,975 156 247 60
2019-02-21 10:31:16 GMT 51.373432 -2.423768 8,975 155 261 -60
2019-02-21 10:31:05 GMT 51.385830 -2.432806 8,950 155 259 60
2019-02-21 10:30:53 GMT 51.398411 -2.442162 8,975 160 222 120
2019-02-21 10:30:43 GMT 51.409798 -2.450318 8,950 154 267 0
2019-02-21 10:30:33 GMT 51.421417 -2.459782 8,950 161 240 0
2019-02-21 10:30:19 GMT 51.437000 -2.472169 8,950 156 261 0
2019-02-21 10:29:47 GMT 51.472473 -2.497072 8,950 152 267 0
2019-02-21 10:29:31 GMT 51.490883 -2.511643 8,950 156 230 0
2019-02-21 10:29:21 GMT 51.500652 -2.518581 8,975 146 265 -24840
2019-02-21 10:29:07 GMT 51.515938 -2.533557 8,950 141 260 -32100
2019-02-21 10:28:57 GMT 51.525337 -2.544505 8,975 143 249 0
2019-02-21 10:28:43 GMT 51.538464 -2.562397 8,950 142 273 21360
2019-02-21 10:28:32 GMT 51.549809 -2.577096 8,975 142 259 -20820
2019-02-21 10:28:17 GMT 51.564480 -2.594790 8,950 141 267 -30840
2019-02-21 10:28:00 GMT 51.581028 -2.615715 8,975 141 275 45300
2019-02-21 10:27:48 GMT 51.592999 -2.631075 8,975 144 255 60
2019-02-21 10:27:38 GMT 51.602093 -2.642145 8,975 143 249 0
2019-02-21 10:27:28 GMT 51.611347 -2.653279 8,975 138 280 -60
2019-02-21 10:27:17 GMT 51.622051 -2.668453 8,950 142 272 0
2019-02-21 10:27:07 GMT 51.631516 -2.680210 8,975 141 266 0
2019-02-21 10:26:52 GMT 51.646076 -2.698671 8,950 141 265 0
2019-02-21 10:26:42 GMT 51.654938 -2.709902 8,950 141 263 60
2019-02-21 10:26:31 GMT 51.666115 -2.723913 8,975 141 258 0
2019-02-21 10:26:21 GMT 51.675541 -2.735798 8,950 141 273 0
2019-02-21 10:26:09 GMT 51.688019 -2.751570 8,950 142 287 -60
2019-02-21 10:25:57 GMT 51.700649 -2.767352 8,950 141 225 -60
2019-02-21 10:25:45 GMT 51.710407 -2.780038 8,950 141 269 60
2019-02-21 10:25:34 GMT 51.720600 -2.792950 8,975 142 305 60
2019-02-21 10:25:21 GMT 51.733566 -2.809436 8,975 141 270 -60
2019-02-21 10:25:11 GMT 51.742905 -2.821183 8,950 141 267 0
2019-02-21 10:24:58 GMT 51.755974 -2.837930 8,975 141 260 0
2019-02-21 10:24:47 GMT 51.766174 -2.850937 8,950 141 258 0
2019-02-21 10:24:36 GMT 51.833691 -2.937577 8,975 141 268 0
2019-02-21 10:23:35 GMT 51.833691 -2.937577 8,975 141 268 0
2019-02-21 10:23:07 GMT 51.860996 -2.972642 8,975 142 253 0
2019-02-21 10:22:48 GMT 51.878597 -2.994880 8,975 141 266 0
2019-02-21 10:22:33 GMT 51.893475 -3.012744 8,975 137 282 0
2019-02-21 10:22:22 GMT 51.904465 -3.028089 8,975 140 262 0
2019-02-21 10:22:11 GMT 51.914833 -3.041722 8,950 141 254 -480
2019-02-21 10:20:01 GMT 52.035763 -3.199468 8,975 139 278 -600
2019-02-21 10:19:47 GMT 52.048561 -3.216280 8,975 146 372 -2580
We lost coverage of the aircraft here for a total of 18 minutes
2019-02-21 10:01:56 GMT 53.099609 -4.675972 17,875 146 372 -2580
2019-02-21 10:01:37 GMT 53.127476 -4.705870 18,650 146 384 -3360
2019-02-21 10:00:39 GMT 53.211193 -4.795205 21,025 146 384 -3360
2019-02-21 10:00:26 GMT 53.229218 -4.816679 21,525 150 383 -1380
2019-02-21 10:00:07 GMT 53.258583 -4.845757 22,200 157 364 840
2019-02-21 09:59:54 GMT 53.278812 -4.859831 22,475 163 409 -1740
2019-02-21 09:59:43 GMT 53.298691 -4.869369 22,950 174 359 -2340
2019-02-21 09:59:32 GMT 53.317184 -4.873431 23,275 177 410 -1860
2019-02-21 09:59:21 GMT 53.338081 -4.874663 23,625 176 371 -480
2019-02-21 09:59:09 GMT 53.359634 -4.876384 23,975 176 362 -1980
2019-02-21 09:58:57 GMT 53.378883 -4.878363 24,275 177 400 -1260
2019-02-21 09:58:45 GMT 53.400745 -4.880029 24,700 177 370 -1500
2019-02-21 09:58:32 GMT 53.426121 -4.882561 25,100 176 370 -1980
2019-02-21 09:58:21 GMT 53.444344 -4.884417 25,450 176 423 -1680
2019-02-21 09:58:11 GMT 53.463879 -4.886362 25,700 177 422 -2100
2019-02-21 09:58:01 GMT 53.483398 -4.888001 26,050 176 379 -2820
2019-02-21 09:57:51 GMT 53.501301 -4.890027 26,275 177 371 -1500
2019-02-21 09:57:40 GMT 53.521324 -4.891980 26,650 176 402 -1680
2019-02-21 09:57:30 GMT 53.539902 -4.894118 26,950 175 457 -1680
2019-02-21 09:57:20 GMT 53.579735 -4.899323 27,350 175 407 -1080
2019-02-21 09:57:10 GMT 53.579735 -4.899323 27,650 175 415 -1080
2019-02-21 09:56:57 GMT 53.626728 -4.904764 28,050 178 420 -3180
2019-02-21 09:56:45 GMT 53.626728 -4.904764 28,325 176 419 -900
2019-02-21 09:56:34 GMT 53.648380 -4.907008 28,700 175 428 -1560
2019-02-21 09:56:23 GMT 53.670158 -4.910028 28,975 174 438 -1500
2019-02-21 09:56:13 GMT 53.690002 -4.913901 29,300 179 467 -1140
2019-02-21 09:56:02 GMT 53.713776 -4.914574 29,675 175 414 -1200
2019-02-21 09:55:52 GMT 53.733200 -4.917316 29,975 175 454 -1560
2019-02-21 09:55:40 GMT 53.757446 -4.920345 30,350 176 446 -2760
2019-02-21 09:55:29 GMT 53.780514 -4.923408 30,600 176 418 -1260
2019-02-21 09:55:18 GMT 53.801758 -4.925715 30,825 175 412 -960
2019-02-21 09:55:08 GMT 53.823551 -4.927732 31,025 175 403 -900
2019-02-21 09:54:57 GMT 53.863926 -4.933114 31,350 176 439 -1260
2019-02-21 09:54:47 GMT 53.863926 -4.933114 31,550 178 417 -1560
2019-02-21 09:54:36 GMT 53.885162 -4.933937 31,775 194 458 -240
2019-02-21 09:54:26 GMT 53.906071 -4.926161 32,050 203 407 -1320
2019-02-21 09:54:16 GMT 53.923367 -4.913477 32,225 219 419 -2520
2019-02-21 09:54:06 GMT 53.938477 -4.893902 32,450 230 411 -1560
2019-02-21 09:53:54 GMT 53.952984 -4.863863 32,675 239 411 600
2019-02-21 09:53:44 GMT 53.961349 -4.834944 32,900 253 404 -1380
2019-02-21 09:53:33 GMT 53.965328 -4.798546 33,225 271 387 -1500
2019-02-21 09:53:22 GMT 53.964653 -4.762994 33,425 287 397 -1020
2019-02-21 09:53:11 GMT 53.958481 -4.729788 33,700 300 366 -1380
2019-02-21 09:53:01 GMT 53.948799 -4.703361 33,975 313 361 -1020
2019-02-21 09:52:50 GMT 53.935638 -4.680895 34,275 325 436 -1260
2019-02-21 09:52:40 GMT 53.918427 -4.663733 34,475 338 381 -1260
2019-02-21 09:52:29 GMT 53.881382 -4.639647 34,800 340 432 -1260
2019-02-21 09:52:18 GMT 53.881382 -4.639647 35,025 335 355 -1200
2019-02-21 09:52:07 GMT 53.864868 -4.627033 35,250 337 340 -1200
2019-02-21 09:51:57 GMT 53.849136 -4.617820 35,500 337 383 -2700
2019-02-21 09:51:47 GMT 53.834377 -4.609250 35,725 334 383 -1200
2019-02-21 09:51:37 GMT 53.818344 -4.596376 36,025 338 316 -1380
2019-02-21 09:51:26 GMT 53.803108 -4.586202 36,250 338 346 -480
2019-02-21 09:51:16 GMT 53.789917 -4.577039 36,475 339 342 0
2019-02-21 09:51:04 GMT 53.756649 -4.555084 36,550 337 334 0
2019-02-21 09:50:53 GMT 53.756649 -4.555084 36,550 338 299 60
2019-02-21 09:50:42 GMT 53.741913 -4.545338 36,550 337 336 -60
2019-02-21 09:50:31 GMT 53.725552 -4.534737 36,550 338 315 0
2019-02-21 09:50:20 GMT 53.695820 -4.515040 36,550 339 331 -60
2019-02-21 09:50:09 GMT 53.695820 -4.515040 36,550 336 302 -60
2019-02-21 09:49:59 GMT 53.682941 -4.505775 36,550 338 348 0
2019-02-21 09:49:49 GMT 53.667923 -4.495922 36,550 339 319 60
2019-02-21 09:49:39 GMT 53.654053 -4.487290 36,550 335 286 60
2019-02-21 09:49:28 GMT 53.625999 -4.467765 36,525 338 338 180
2019-02-21 09:49:18 GMT 53.625999 -4.467765 36,500 339 331 60
2019-02-21 09:49:08 GMT 53.611603 -4.458798 36,450 336 291 60
2019-02-21 09:48:58 GMT 53.599178 -4.449886 36,450 339 358 0
2019-02-21 09:48:48 GMT 53.585773 -4.441222 36,450 338 319 0
2019-02-21 09:48:38 GMT 53.572037 -4.432125 36,425 338 321 60
2019-02-21 09:48:27 GMT 53.555923 -4.421764 36,425 336 316 300
2019-02-21 09:48:16 GMT 53.541721 -4.411774 36,400 337 308 480
2019-02-21 09:48:06 GMT 53.528526 -4.402709 36,350 340 324 660
2019-02-21 09:47:55 GMT 53.513618 -4.392748 36,250 339 349 240
2019-02-21 09:47:45 GMT 53.499420 -4.383328 36,100 340 317 420
2019-02-21 09:47:35 GMT 53.485401 -4.374245 36,025 339 312 240
2019-02-21 09:47:25 GMT 53.471882 -4.365598 36,000 338 317 60
2019-02-21 09:47:15 GMT 53.458179 -4.356596 35,950 339 348 180
2019-02-21 09:47:04 GMT 53.443043 -4.346482 35,925 338 310 1080
2019-02-21 09:46:54 GMT 53.429302 -4.337343 35,875 340 345 -660
2019-02-21 09:46:43 GMT 53.397484 -4.316994 35,825 339 334 300
2019-02-21 09:46:32 GMT 53.384335 -4.308261 35,800 337 321 180
2019-02-21 09:46:22 GMT 53.384335 -4.308261 35,750 337 327 180
2019-02-21 09:46:12 GMT 53.355953 -4.289808 35,700 339 341 0
2019-02-21 09:46:02 GMT 53.355953 -4.289808 35,650 336 296 960
2019-02-21 09:45:52 GMT 53.343517 -4.281180 35,625 342 365 -420
2019-02-21 09:45:41 GMT 53.327698 -4.270604 35,575 348 357 480
2019-02-21 09:45:31 GMT 53.312687 -4.266535 35,525 325 330 180
2019-02-21 09:45:21 GMT 53.285782 -4.245289 35,450 338 306 780
2019-02-21 09:45:11 GMT 53.285782 -4.245289 35,400 325 381 300
2019-02-21 09:45:01 GMT 53.271290 -4.228471 35,250 353 262 480
2019-02-21 09:44:51 GMT 53.259216 -4.226238 35,200 348 305 180
2019-02-21 09:44:41 GMT 53.244038 -4.217010 35,100 356 329 300
2019-02-21 09:44:31 GMT 53.211945 -4.199021 35,075 311 368 1380
2019-02-21 09:44:19 GMT 53.199837 -4.189168 35,025 338 294 960
2019-02-21 09:44:09 GMT 53.199837 -4.189168 34,975 335 311 -420
2019-02-21 09:43:59 GMT 53.185673 -4.178926 34,900 334 334 360
2019-02-21 09:43:49 GMT 53.156166 -4.159806 34,800 348 274 300
2019-02-21 09:43:37 GMT 53.156166 -4.159806 34,650 338 311 420
2019-02-21 09:43:26 GMT 53.141083 -4.147989 34,550 342 321 300
2019-02-21 09:43:16 GMT 53.126595 -4.137286 34,450 346 287 300
2019-02-21 09:43:03 GMT 53.109386 -4.128758 34,375 338 351 480
2019-02-21 09:42:50 GMT 53.092308 -4.117316 34,225 333 385 720
2019-02-21 09:42:40 GMT 53.077648 -4.108210 34,150 349 294 1500
2019-02-21 09:42:30 GMT 53.063114 -4.099044 34,050 338 355 480
2019-02-21 09:42:20 GMT 53.048183 -4.090225 33,900 339 323 480
2019-02-21 09:42:10 GMT 53.020081 -4.067899 33,775 340 306 180
2019-02-21 09:42:00 GMT 53.006615 -4.052493 33,700 338 352 600
2019-02-21 09:41:50 GMT 53.006615 -4.052493 33,550 2 323 360
2019-02-21 09:41:39 GMT 52.991100 -4.054539 33,525 335 353 240
2019-02-21 09:41:26 GMT 52.971748 -4.040017 33,450 336 342 420
2019-02-21 09:41:15 GMT 52.956406 -4.030690 33,375 330 299 840
2019-02-21 09:41:05 GMT 52.941902 -4.021245 33,300 341 316 0
2019-02-21 09:40:54 GMT 52.912117 -4.001712 33,225 337 375 420
2019-02-21 09:40:44 GMT 52.912117 -4.001712 33,175 338 297 900
2019-02-21 09:40:33 GMT 52.897739 -3.993120 33,050 338 329 720
2019-02-21 09:40:23 GMT 52.884083 -3.985045 32,875 336 367 420
2019-02-21 09:40:13 GMT 52.869183 -3.975088 32,725 337 308 480
2019-02-21 09:40:01 GMT 52.853321 -3.964125 32,650 342 361 1740
2019-02-21 09:39:51 GMT 52.838623 -3.955666 32,500 328 353 1140
2019-02-21 09:39:41 GMT 52.824516 -3.947237 32,350 332 340 180
2019-02-21 09:39:30 GMT 52.809105 -3.934187 32,225 349 337 600
2019-02-21 09:39:20 GMT 52.793774 -3.929258 32,150 333 330 720
2019-02-21 09:39:09 GMT 52.761066 -3.905792 31,925 337 322 0
2019-02-21 09:38:57 GMT 52.761066 -3.905792 31,800 339 336 0
2019-02-21 09:38:46 GMT 52.745113 -3.895155 31,675 338 327 1380
2019-02-21 09:38:35 GMT 52.731365 -3.886307 31,375 337 374 1020
2019-02-21 09:38:23 GMT 52.712212 -3.873036 31,050 343 309 60
2019-02-21 09:38:13 GMT 52.697189 -3.864398 30,900 337 340 480
2019-02-21 09:38:03 GMT 52.667744 -3.844907 30,850 336 339 900
2019-02-21 09:37:52 GMT 52.650585 -3.835198 30,700 338 302 540
2019-02-21 09:37:40 GMT 52.650585 -3.835198 30,500 333 361 780
2019-02-21 09:37:29 GMT 52.634079 -3.821730 30,375 346 347 840
2019-02-21 09:37:19 GMT 52.619019 -3.815065 30,175 339 339 420
2019-02-21 09:37:09 GMT 52.604343 -3.805812 30,050 338 338 1020
2019-02-21 09:36:57 GMT 52.586414 -3.794730 29,875 339 308 660
2019-02-21 09:36:47 GMT 52.573078 -3.786358 29,775 338 347 720
2019-02-21 09:36:36 GMT 52.556740 -3.775492 29,575 340 361 660
2019-02-21 09:36:25 GMT 52.525806 -3.758495 29,475 344 315 1020
2019-02-21 09:36:15 GMT 52.525806 -3.758495 29,375 331 351 1260
2019-02-21 09:36:02 GMT 52.506786 -3.744948 29,250 344 342 780
2019-02-21 09:35:51 GMT 52.491562 -3.737318 29,025 335 329 840
2019-02-21 09:35:41 GMT 52.476830 -3.725068 28,875 343 332 960
2019-02-21 09:35:31 GMT 52.463081 -3.715493 28,725 347 362 1320
2019-02-21 09:35:21 GMT 52.447681 -3.708482 28,600 336 334 600
2019-02-21 09:35:11 GMT 52.433537 -3.700451 28,425 337 335 600
2019-02-21 09:35:01 GMT 52.419167 -3.690815 28,275 341 315 1260
2019-02-21 09:34:51 GMT 52.405304 -3.683356 28,050 335 337 480
2019-02-21 09:34:41 GMT 52.391090 -3.672748 27,875 339 321 960
2019-02-21 09:34:29 GMT 52.373829 -3.659077 27,725 338 367 0
2019-02-21 09:34:19 GMT 52.359051 -3.652167 27,550 338 340 2280
2019-02-21 09:34:09 GMT 52.344364 -3.642888 27,350 340 330 0
2019-02-21 09:33:58 GMT 52.329056 -3.633546 27,075 349 344 1680
2019-02-21 09:33:45 GMT 52.309261 -3.621216 26,675 331 337 1620
2019-02-21 09:33:32 GMT 52.290627 -3.609439 26,350 338 350 1380
2019-02-21 09:33:20 GMT 52.275597 -3.595448 26,050 348 381 300
2019-02-21 09:33:09 GMT 52.256592 -3.588926 25,925 342 321 0
2019-02-21 09:32:59 GMT 52.241894 -3.579873 25,925 338 332 0
2019-02-21 09:32:49 GMT 52.227673 -3.571026 25,925 345 345 0
2019-02-21 09:32:38 GMT 52.210674 -3.560531 25,925 336 347 0
2019-02-21 09:32:28 GMT 52.195915 -3.550054 25,925 348 328 -60
2019-02-21 09:32:17 GMT 52.180660 -3.541524 25,925 342 347 0
2019-02-21 09:32:07 GMT 52.164612 -3.532082 25,925 339 334 60
2019-02-21 09:31:57 GMT 52.150120 -3.523245 25,950 339 347 60
2019-02-21 09:31:47 GMT 52.135067 -3.514053 25,925 337 369 0
2019-02-21 09:31:37 GMT 52.104794 -3.495711 25,925 339 330 0
2019-02-21 09:31:27 GMT 52.104794 -3.495711 25,925 338 392 0
2019-02-21 09:31:16 GMT 52.067837 -3.476552 25,925 350 365 0
2019-02-21 09:31:04 GMT 52.067837 -3.476552 25,925 334 369 0
2019-02-21 09:30:53 GMT 52.051807 -3.462128 25,925 338 384 0
2019-02-21 09:30:41 GMT 52.032013 -3.449234 25,950 341 353 0
2019-02-21 09:30:30 GMT 51.995445 -3.427294 25,950 332 427 -60
2019-02-21 09:30:18 GMT 51.995445 -3.427294 25,925 338 373 0
2019-02-21 09:30:07 GMT 51.962105 -3.406548 25,950 339 366 0
2019-02-21 09:29:57 GMT 51.945290 -3.396408 25,950 340 383 60
2019-02-21 09:29:47 GMT 51.945290 -3.396408 25,950 341 370 60
2019-02-21 09:29:35 GMT 51.926758 -3.383474 25,950 342 411 -60
2019-02-21 09:29:24 GMT 51.906216 -3.371985 25,925 340 328 0
2019-02-21 09:29:14 GMT 51.891705 -3.364125 25,950 338 418 0
2019-02-21 09:29:03 GMT 51.871838 -3.354821 25,950 331 406 0
2019-02-21 09:28:52 GMT 51.854107 -3.342283 25,950 336 389 0
2019-02-21 09:28:42 GMT 51.837608 -3.330497 25,950 338 439 0
2019-02-21 09:28:31 GMT 51.802448 -3.308959 25,950 336 384 0
2019-02-21 09:28:21 GMT 51.802448 -3.308959 25,950 338 406 0
2019-02-21 09:28:10 GMT 51.783470 -3.296789 25,950 327 432 -60
2019-02-21 09:27:59 GMT 51.765747 -3.284422 25,950 342 367 0
2019-02-21 09:27:49 GMT 51.749535 -3.276244 25,950 338 424 60
2019-02-21 09:27:39 GMT 51.731274 -3.264576 25,975 316 381 0
2019-02-21 09:27:28 GMT 51.717167 -3.243004 25,950 314 376 0
2019-02-21 09:27:17 GMT 51.703056 -3.217967 25,950 310 285 0
2019-02-21 09:27:06 GMT 51.691261 -3.196639 25,950 311 393 0
2019-02-21 09:26:56 GMT 51.679203 -3.174655 25,950 311 383 0
2019-02-21 09:26:45 GMT 51.666538 -3.151146 25,950 309 377 0
2019-02-21 09:26:34 GMT 51.653725 -3.127661 25,950 311 368 0
2019-02-21 09:26:24 GMT 51.642529 -3.106907 25,950 306 407 0
2019-02-21 09:26:13 GMT 51.629433 -3.081326 25,950 310 364 0
2019-02-21 09:26:03 GMT 51.617619 -3.061626 25,950 307 352 0
2019-02-21 09:25:53 GMT 51.608044 -3.035906 25,950 313 377 0
2019-02-21 09:25:40 GMT 51.592262 -3.012200 25,950 313 343 0
2019-02-21 09:25:30 GMT 51.581604 -2.992671 25,950 311 391 0
2019-02-21 09:25:19 GMT 51.568237 -2.968175 25,950 309 314 0
2019-02-21 09:25:08 GMT 51.556999 -2.947448 25,950 311 361 0
2019-02-21 09:24:50 GMT 51.539177 -2.864240 25,950 352 267 0
2019-02-21 09:24:23 GMT 51.505283 -2.853288 25,975 310 309 0
2019-02-21 09:24:13 GMT 51.487984 -2.820206 25,950 309 395 0
2019-02-21 09:24:03 GMT 51.485470 -2.816315 25,950 320 347 0
2019-02-21 09:23:51 GMT 51.472675 -2.792850 25,950 310 399 0
2019-02-21 09:23:41 GMT 51.461292 -2.772558 25,950 310 377 0
2019-02-21 09:23:31 GMT 51.450279 -2.751994 25,950 309 361 0
2019-02-21 09:23:21 GMT 51.440083 -2.733019 25,950 319 315 0
2019-02-21 09:23:10 GMT 51.429729 -2.713635 25,950 313 385 0
2019-02-21 09:22:58 GMT 51.415527 -2.688790 25,950 311 320 0
2019-02-21 09:22:48 GMT 51.406403 -2.665208 25,950 322 308 0
2019-02-21 09:22:36 GMT 51.393185 -2.647709 25,950 313 312 60
2019-02-21 09:22:25 GMT 51.381882 -2.627425 25,950 311 314 60
2019-02-21 09:22:15 GMT 51.372948 -2.611737 25,925 309 319 480
2019-02-21 09:22:05 GMT 51.353287 -2.576427 25,850 312 275 0
2019-02-21 09:21:54 GMT 51.353287 -2.576427 25,750 311 328 1140
2019-02-21 09:21:43 GMT 51.343090 -2.557356 25,475 308 279 960
2019-02-21 09:21:33 GMT 51.333828 -2.540407 25,300 310 313 720
2019-02-21 09:21:23 GMT 51.324322 -2.522850 25,100 311 300 1020
2019-02-21 09:21:13 GMT 51.314552 -2.505001 24,850 311 291 1020
2019-02-21 09:21:02 GMT 51.304802 -2.487311 24,650 311 325 720
2019-02-21 09:20:52 GMT 51.294819 -2.469316 24,450 309 292 1140
2019-02-21 09:20:41 GMT 51.285538 -2.451907 24,250 309 327 660
2019-02-21 09:20:30 GMT 51.274738 -2.431776 23,950 312 283 0
2019-02-21 09:20:20 GMT 51.266609 -2.417303 23,825 305 325 480
2019-02-21 09:20:10 GMT 51.257866 -2.398316 23,775 300 284 660
2019-02-21 09:20:00 GMT 51.251640 -2.381397 23,650 294 300 1080
2019-02-21 09:19:49 GMT 51.245399 -2.359064 23,500 282 304 3180
2019-02-21 09:19:38 GMT 51.244850 -2.314356 23,200 262 276 -300
2019-02-21 09:19:27 GMT 51.244850 -2.314356 23,025 236 283 -480
2019-02-21 09:19:17 GMT 51.251774 -2.294337 22,825 217 251 960
2019-02-21 09:19:07 GMT 51.274509 -2.275802 22,600 194 298 1200
2019-02-21 09:18:57 GMT 51.274509 -2.275802 22,475 186 249 1200
2019-02-21 09:18:47 GMT 51.286175 -2.275116 22,200 166 310 840
2019-02-21 09:18:37 GMT 51.298283 -2.282534 22,100 142 267 1140
2019-02-21 09:18:27 GMT 51.314304 -2.311928 21,925 119 310 1020
2019-02-21 09:18:17 GMT 51.314304 -2.311928 21,775 100 311 780
2019-02-21 09:18:06 GMT 51.313042 -2.359499 21,525 73 271 3600
2019-02-21 09:17:54 GMT 51.313042 -2.359499 21,225 54 293 -120
2019-02-21 09:17:44 GMT 51.305965 -2.377303 20,800 45 272 300
2019-02-21 09:17:33 GMT 51.293613 -2.390964 20,600 12 305 300
2019-02-21 09:17:22 GMT 51.279430 -2.396111 20,575 9 288 3360
2019-02-21 09:17:12 GMT 51.267113 -2.399391 20,475 7 270 -360
2019-02-21 09:17:01 GMT 51.253475 -2.402298 20,200 16 267 1740
2019-02-21 09:16:51 GMT 51.241623 -2.403917 19,950 22 285 1740
2019-02-21 09:16:41 GMT 51.229992 -2.410773 19,700 12 273 1080
2019-02-21 09:16:31 GMT 51.216633 -2.412014 19,475 20 267 1500
2019-02-21 09:16:20 GMT 51.204704 -2.418420 19,150 5 287 1500
2019-02-21 09:16:10 GMT 51.191456 -2.420552 18,825 12 277 1500
2019-02-21 09:16:00 GMT 51.179375 -2.423971 18,550 10 284 1080
2019-02-21 09:15:50 GMT 51.167664 -2.427678 18,300 5 267 1200
2019-02-21 09:15:40 GMT 51.155659 -2.429084 18,075 14 255 1320
2019-02-21 09:15:30 GMT 51.131611 -2.434126 17,875 4 263 960
2019-02-21 09:15:20 GMT 51.131611 -2.434126 17,700 338 265 900
2019-02-21 09:15:09 GMT 51.119339 -2.424990 17,450 321 242 1380
2019-02-21 09:14:58 GMT 51.109509 -2.412335 17,250 320 220 1800
2019-02-21 09:14:47 GMT 51.100880 -2.400861 16,950 318 255 1200
2019-02-21 09:14:37 GMT 51.091980 -2.388512 16,800 311 224 780
2019-02-21 09:14:26 GMT 51.082409 -2.375769 16,550 320 224 720
2019-02-21 09:14:15 GMT 51.073612 -2.364178 15,550 317 213 2700
2019-02-21 09:14:04 GMT 51.066345 -2.351569 16,150 329 277 -420
2019-02-21 09:13:54 GMT 51.055256 -2.341225 15,950 317 212 1320
2019-02-21 09:13:42 GMT 51.046593 -2.328473 15,600 320 224 4980
2019-02-21 09:13:30 GMT 51.038109 -2.313871 15,200 330 231 -2160
2019-02-21 09:13:20 GMT 51.029804 -2.304777 14,900 319 231 1200
2019-02-21 09:13:10 GMT 51.021618 -2.293824 14,550 317 216 2340
2019-02-21 09:13:00 GMT 51.014061 -2.282419 14,300 323 228 3000
2019-02-21 09:12:50 GMT 51.006100 -2.272626 14,075 320 217 1680
2019-02-21 09:12:37 GMT 50.996735 -2.257253 13,600 326 224 2040
2019-02-21 09:12:26 GMT 50.987747 -2.248079 13,400 320 216 1140
2019-02-21 09:12:15 GMT 50.978947 -2.235835 12,975 317 212 1020
2019-02-21 09:12:05 GMT 50.971676 -2.225294 12,650 322 229 1560
2019-02-21 09:11:54 GMT 50.962372 -2.214102 12,425 315 209 1560
2019-02-21 09:11:43 GMT 50.954784 -2.202219 12,025 315 252 2460
2019-02-21 09:11:33 GMT 50.947090 -2.193035 11,675 323 217 2460
2019-02-21 09:11:23 GMT 50.938759 -2.181305 11,375 331 217 1560
2019-02-21 09:11:11 GMT 50.927917 -2.173038 11,100 303 253 1800
2019-02-21 09:11:01 GMT 50.920902 -2.161140 10,725 327 209 1920
2019-02-21 09:10:49 GMT 50.911369 -2.146039 10,150 312 241 1860
2019-02-21 09:10:39 GMT 50.903858 -2.132920 9,750 331 203 2520
2019-02-21 09:10:27 GMT 50.895069 -2.123107 9,375 319 231 2280
2019-02-21 09:10:04 GMT 50.875229 -2.091669 8,350 349 193 2160
2019-02-21 09:09:53 GMT 50.866425 -2.085178 7,950 313 144 1560
2019-02-21 09:09:43 GMT 50.859161 -2.072382 7,525 324 203 3420
2019-02-21 09:09:32 GMT 50.850739 -2.061803 7,100 326 203 1680
2019-02-21 09:09:20 GMT 50.840660 -2.048843 6,275 276 240 1920
2019-02-21 09:09:10 GMT 50.833202 -2.036665 6,375 298 364 2100
2019-02-21 09:08:59 GMT 50.825603 -2.026254 5,875 289 96 1380

Making use of Plane Finder data

You are free to use the raw flight data, aircraft information and images provided in this report for your own purposes provided the data is correctly attributed to Plane Finder. We ask that you please credit Plane Finder and link to planefinder.net in close proximity to the content.

Optionally one of the following logos (no smaller then 150x24px) can be used and must link to planefinder.net

Embedding the Plane Finder map

You are welcome to embed the Plane Finder playback map on your website to offer visitors a more interactive experience. We suggest using the following HTML code:

<iframe src="//planefinder.net/data/report/ZODIAC51-G-FRAH-7700-squawk-2019-02-21/map" width="800" height="600" seamless="seamless"></iframe>

Where our data comes from

Plane Finder has a global network of data feeds and antenna radars that receive data broadcast directly from aircraft. The primary technologies used are ADS-B and MLAT. We also show feeds from the FAA and a FLARM glider feed.

Click here to find out more about the Plane Finder network.

How we collect our data